BTK6275 WAOO-WAHI
Flight info
| Callsign | BTK6275 |
|---|---|
| Flight time | 1h 18m |
| Altitude | 38000 |
| Route | RITBO DCT SIPUT W52 LASEM DCT PURWO W17N SO |
| Aircraft | A320/M-SDE3FGHIRWY/LB1 |
Departure
| Time | 2026-04-30 13:22 |
|---|---|
| Airport | Syamsudin Noor International Airport (WAOO) |
Arrival
| Time | 2026-04-30 14:40 |
|---|---|
| Airport | Yogyakarta International Airport (WAHI) |
| Time | Latitude | Longitude | Altitude | Speed | Heading |
|---|---|---|---|---|---|
| 2026-04-30 13:11 | -3.43835 | 114.75975 | 75 ft | 0 kts | 10° |
| 2026-04-30 13:13 | -3.43847 | 114.75973 | 63 ft | 4 kts | 9° |
| 2026-04-30 13:13 | -3.43874 | 114.75970 | 64 ft | 4 kts | 2° |
| 2026-04-30 13:13 | -3.43921 | 114.75982 | 64 ft | 3 kts | 286° |
| 2026-04-30 13:14 | -3.43923 | 114.75990 | 70 ft | 0 kts | 280° |
| 2026-04-30 13:16 | -3.43923 | 114.75985 | 68 ft | 2 kts | 281° |
| 2026-04-30 13:16 | -3.43918 | 114.75961 | 69 ft | 6 kts | 280° |
| 2026-04-30 13:17 | -3.43898 | 114.75840 | 75 ft | 9 kts | 279° |
| 2026-04-30 13:17 | -3.43889 | 114.75783 | 72 ft | 8 kts | 279° |
| 2026-04-30 13:17 | -3.43894 | 114.75700 | 69 ft | 5 kts | 223° |
| 2026-04-30 13:18 | -3.43921 | 114.75692 | 67 ft | 4 kts | 194° |
| 2026-04-30 13:18 | -3.43971 | 114.75681 | 70 ft | 7 kts | 192° |
| 2026-04-30 13:18 | -3.44046 | 114.75666 | 64 ft | 15 kts | 191° |
| 2026-04-30 13:19 | -3.44113 | 114.75600 | 75 ft | 15 kts | 277° |
| 2026-04-30 13:19 | -3.44095 | 114.75496 | 71 ft | 17 kts | 280° |
| 2026-04-30 13:19 | -3.44073 | 114.75373 | 70 ft | 19 kts | 280° |
| 2026-04-30 13:19 | -3.44048 | 114.75234 | 65 ft | 21 kts | 281° |
| 2026-04-30 13:20 | -3.44036 | 114.75165 | 71 ft | 6 kts | 329° |
| 2026-04-30 13:20 | -3.44008 | 114.75173 | 66 ft | 3 kts | 44° |
| 2026-04-30 13:20 | -3.44003 | 114.75191 | 71 ft | 5 kts | 90° |
| 2026-04-30 13:20 | -3.44037 | 114.75230 | 66 ft | 8 kts | 125° |
| 2026-04-30 13:21 | -3.44050 | 114.75279 | 72 ft | 8 kts | 99° |
| 2026-04-30 13:21 | -3.44097 | 114.75523 | 74 ft | 80 kts | 100° |
| 2026-04-30 13:21 | -3.44240 | 114.76301 | 71 ft | 142 kts | 100° |
| 2026-04-30 13:22 | -3.44632 | 114.78521 | 1079 ft | 162 kts | 100° |
| 2026-04-30 13:22 | -3.44916 | 114.79599 | 1800 ft | 161 kts | 112° |
| 2026-04-30 13:22 | -3.46309 | 114.81614 | 2560 ft | 198 kts | 140° |
| 2026-04-30 13:23 | -3.47514 | 114.82412 | 2810 ft | 219 kts | 155° |
| 2026-04-30 13:23 | -3.50713 | 114.82851 | 3872 ft | 247 kts | 190° |
| 2026-04-30 13:24 | -3.53722 | 114.81238 | 5417 ft | 256 kts | 227° |
| 2026-04-30 13:24 | -3.55393 | 114.77864 | 6690 ft | 282 kts | 250° |
| 2026-04-30 13:25 | -3.56731 | 114.74087 | 8336 ft | 292 kts | 250° |
| 2026-04-30 13:25 | -3.58122 | 114.70208 | 9922 ft | 301 kts | 250° |
| 2026-04-30 13:26 | -3.61245 | 114.64086 | 10849 ft | 360 kts | 239° |
| 2026-04-30 13:26 | -3.63765 | 114.59646 | 12092 ft | 371 kts | 236° |
| 2026-04-30 13:27 | -3.67212 | 114.55823 | 13433 ft | 373 kts | 216° |
| 2026-04-30 13:28 | -3.73056 | 114.51456 | 16621 ft | 338 kts | 214° |
| 2026-04-30 13:28 | -3.76840 | 114.48694 | 17873 ft | 344 kts | 214° |
| 2026-04-30 13:28 | -3.78773 | 114.47276 | 18434 ft | 347 kts | 214° |
| 2026-04-30 13:29 | -3.82733 | 114.44368 | 19461 ft | 353 kts | 214° |
| 2026-04-30 13:29 | -3.86699 | 114.41444 | 20455 ft | 359 kts | 214° |
| 2026-04-30 13:30 | -3.92770 | 114.36957 | 21937 ft | 368 kts | 214° |
| 2026-04-30 13:31 | -3.96919 | 114.33891 | 22905 ft | 374 kts | 214° |
| 2026-04-30 13:31 | -4.03280 | 114.29204 | 24219 ft | 382 kts | 214° |
| 2026-04-30 13:32 | -4.07566 | 114.26041 | 25036 ft | 387 kts | 214° |
| 2026-04-30 13:32 | -4.11918 | 114.22828 | 25834 ft | 391 kts | 214° |
| 2026-04-30 13:33 | -4.16314 | 114.19577 | 26619 ft | 395 kts | 214° |
| 2026-04-30 13:33 | -4.20768 | 114.16286 | 27384 ft | 400 kts | 214° |
| 2026-04-30 13:34 | -4.22998 | 114.14642 | 27768 ft | 402 kts | 214° |
| 2026-04-30 13:34 | -4.29823 | 114.09600 | 28924 ft | 408 kts | 214° |
| 2026-04-30 13:35 | -4.32113 | 114.07907 | 29291 ft | 410 kts | 214° |
| 2026-04-30 13:35 | -4.36732 | 114.04494 | 30017 ft | 415 kts | 214° |
| 2026-04-30 13:36 | -4.41406 | 114.01042 | 30626 ft | 419 kts | 215° |
| 2026-04-30 13:36 | -4.43765 | 113.99296 | 30934 ft | 422 kts | 215° |
| 2026-04-30 13:36 | -4.48500 | 113.95792 | 31535 ft | 426 kts | 215° |
| 2026-04-30 13:37 | -4.50897 | 113.94018 | 31836 ft | 428 kts | 215° |
| 2026-04-30 13:37 | -4.55716 | 113.90457 | 32438 ft | 432 kts | 216° |
| 2026-04-30 13:38 | -4.60583 | 113.86856 | 32981 ft | 437 kts | 216° |
| 2026-04-30 13:38 | -4.63030 | 113.85046 | 33252 ft | 439 kts | 216° |
| 2026-04-30 13:38 | -4.67973 | 113.81393 | 33791 ft | 443 kts | 216° |
| 2026-04-30 13:39 | -4.72952 | 113.77710 | 34270 ft | 447 kts | 216° |
| 2026-04-30 13:39 | -4.77970 | 113.74001 | 34770 ft | 449 kts | 216° |
| 2026-04-30 13:40 | -4.80481 | 113.72139 | 35015 ft | 449 kts | 216° |
| 2026-04-30 13:40 | -4.82988 | 113.70278 | 35249 ft | 450 kts | 216° |
| 2026-04-30 13:40 | -4.85518 | 113.68403 | 35483 ft | 451 kts | 216° |
| 2026-04-30 13:40 | -4.88014 | 113.66555 | 35711 ft | 452 kts | 216° |
| 2026-04-30 13:41 | -4.90573 | 113.64660 | 35937 ft | 453 kts | 216° |
| 2026-04-30 13:41 | -4.93079 | 113.62806 | 36148 ft | 453 kts | 216° |
| 2026-04-30 13:41 | -4.95623 | 113.60927 | 36358 ft | 454 kts | 216° |
| 2026-04-30 13:41 | -4.98168 | 113.59041 | 36562 ft | 455 kts | 216° |
| 2026-04-30 13:42 | -5.00709 | 113.57153 | 36761 ft | 455 kts | 216° |
| 2026-04-30 13:42 | -5.03264 | 113.55257 | 36967 ft | 456 kts | 216° |
| 2026-04-30 13:42 | -5.08377 | 113.51475 | 37350 ft | 457 kts | 216° |
| 2026-04-30 13:43 | -5.10933 | 113.49582 | 37538 ft | 458 kts | 216° |
| 2026-04-30 13:43 | -5.13509 | 113.47672 | 37724 ft | 459 kts | 216° |
| 2026-04-30 13:43 | -5.16074 | 113.45774 | 37901 ft | 459 kts | 216° |
| 2026-04-30 13:43 | -5.18639 | 113.43877 | 37956 ft | 452 kts | 216° |
| 2026-04-30 13:44 | -5.21118 | 113.42039 | 37951 ft | 437 kts | 216° |
| 2026-04-30 13:44 | -5.23530 | 113.40249 | 37952 ft | 424 kts | 216° |
| 2026-04-30 13:44 | -5.28217 | 113.36758 | 37953 ft | 418 kts | 216° |
| 2026-04-30 13:45 | -5.35229 | 113.31567 | 37953 ft | 417 kts | 216° |
| 2026-04-30 13:46 | -5.39903 | 113.28102 | 37953 ft | 417 kts | 216° |
| 2026-04-30 13:46 | -5.44565 | 113.24639 | 37955 ft | 417 kts | 216° |
| 2026-04-30 13:47 | -5.49230 | 113.21178 | 37955 ft | 417 kts | 216° |
| 2026-04-30 13:47 | -5.53899 | 113.17716 | 37952 ft | 417 kts | 216° |
| 2026-04-30 13:48 | -5.58554 | 113.14255 | 37956 ft | 417 kts | 216° |
| 2026-04-30 13:48 | -5.63218 | 113.10796 | 37957 ft | 416 kts | 216° |
| 2026-04-30 13:49 | -5.67873 | 113.07341 | 37951 ft | 416 kts | 216° |
| 2026-04-30 13:49 | -5.72523 | 113.03882 | 37957 ft | 415 kts | 216° |
| 2026-04-30 13:50 | -5.77130 | 113.00454 | 37955 ft | 415 kts | 216° |
| 2026-04-30 13:50 | -5.84082 | 112.95297 | 37958 ft | 414 kts | 216° |
| 2026-04-30 13:51 | -5.88711 | 112.91828 | 37950 ft | 414 kts | 217° |
| 2026-04-30 13:51 | -5.93153 | 112.88162 | 37952 ft | 414 kts | 220° |
| 2026-04-30 13:52 | -5.97515 | 112.84381 | 37956 ft | 414 kts | 220° |
| 2026-04-30 13:52 | -6.01155 | 112.81260 | 37956 ft | 414 kts | 219° |
| 2026-04-30 13:53 | -6.05571 | 112.77527 | 37949 ft | 413 kts | 219° |
| 2026-04-30 13:53 | -6.09974 | 112.73833 | 37951 ft | 413 kts | 219° |
| 2026-04-30 13:54 | -6.14387 | 112.70119 | 37946 ft | 413 kts | 219° |
| 2026-04-30 13:54 | -6.18775 | 112.66414 | 37947 ft | 413 kts | 219° |
| 2026-04-30 13:55 | -6.23180 | 112.62699 | 37949 ft | 413 kts | 219° |
| 2026-04-30 13:55 | -6.27244 | 112.58633 | 37950 ft | 414 kts | 232° |
| 2026-04-30 13:56 | -6.29994 | 112.53551 | 37945 ft | 417 kts | 249° |
| 2026-04-30 13:56 | -6.31903 | 112.48034 | 37950 ft | 418 kts | 250° |
| 2026-04-30 13:57 | -6.33818 | 112.42514 | 37947 ft | 418 kts | 250° |
| 2026-04-30 13:57 | -6.35736 | 112.36989 | 37949 ft | 418 kts | 250° |
| 2026-04-30 13:58 | -6.38614 | 112.28701 | 37948 ft | 419 kts | 250° |
| 2026-04-30 13:59 | -6.40521 | 112.23194 | 37944 ft | 420 kts | 250° |
| 2026-04-30 13:59 | -6.42445 | 112.17648 | 37947 ft | 420 kts | 250° |
| 2026-04-30 14:00 | -6.44362 | 112.12106 | 37946 ft | 420 kts | 250° |
| 2026-04-30 14:00 | -6.47235 | 112.03771 | 37949 ft | 421 kts | 250° |
| 2026-04-30 14:01 | -6.49161 | 111.98213 | 37948 ft | 421 kts | 250° |
| 2026-04-30 14:01 | -6.51086 | 111.92652 | 37946 ft | 422 kts | 250° |
| 2026-04-30 14:02 | -6.53012 | 111.87070 | 37951 ft | 422 kts | 250° |
| 2026-04-30 14:02 | -6.54933 | 111.81492 | 37947 ft | 423 kts | 250° |
| 2026-04-30 14:03 | -6.56863 | 111.75894 | 37949 ft | 423 kts | 250° |
| 2026-04-30 14:03 | -6.58792 | 111.70307 | 37949 ft | 423 kts | 250° |
| 2026-04-30 14:04 | -6.60726 | 111.64711 | 37948 ft | 423 kts | 250° |
| 2026-04-30 14:04 | -6.63248 | 111.59390 | 37946 ft | 422 kts | 235° |
| 2026-04-30 14:05 | -6.66549 | 111.54499 | 37951 ft | 423 kts | 235° |
| 2026-04-30 14:05 | -6.69849 | 111.49581 | 37955 ft | 424 kts | 235° |
| 2026-04-30 14:06 | -6.74783 | 111.42246 | 37950 ft | 423 kts | 235° |
| 2026-04-30 14:07 | -6.79721 | 111.34880 | 37948 ft | 423 kts | 236° |
| 2026-04-30 14:08 | -6.84663 | 111.27507 | 37953 ft | 424 kts | 236° |
| 2026-04-30 14:08 | -6.89615 | 111.20130 | 37947 ft | 424 kts | 236° |
| 2026-04-30 14:09 | -6.92909 | 111.15214 | 37948 ft | 423 kts | 236° |
| 2026-04-30 14:10 | -6.97832 | 111.07851 | 37949 ft | 423 kts | 236° |
| 2026-04-30 14:10 | -7.01128 | 111.02936 | 37948 ft | 423 kts | 236° |
| 2026-04-30 14:11 | -7.04393 | 110.98066 | 37946 ft | 423 kts | 236° |
| 2026-04-30 14:11 | -7.07681 | 110.93157 | 37947 ft | 422 kts | 236° |
| 2026-04-30 14:12 | -7.10959 | 110.88260 | 37950 ft | 423 kts | 236° |
| 2026-04-30 14:12 | -7.12494 | 110.85963 | 37756 ft | 426 kts | 236° |
| 2026-04-30 14:12 | -7.14146 | 110.83490 | 37537 ft | 421 kts | 236° |
| 2026-04-30 14:13 | -7.17407 | 110.78605 | 37354 ft | 419 kts | 236° |
| 2026-04-30 14:13 | -7.19031 | 110.76174 | 37245 ft | 418 kts | 236° |
| 2026-04-30 14:13 | -7.20676 | 110.73744 | 36703 ft | 422 kts | 234° |
| 2026-04-30 14:13 | -7.22394 | 110.71328 | 35954 ft | 427 kts | 233° |
| 2026-04-30 14:14 | -7.24168 | 110.68922 | 36781 ft | 431 kts | 236° |
| 2026-04-30 14:14 | -7.25980 | 110.66503 | 36145 ft | 431 kts | 227° |
| 2026-04-30 14:14 | -7.27817 | 110.64054 | 35072 ft | 444 kts | 229° |
| 2026-04-30 14:14 | -7.29694 | 110.61530 | 33893 ft | 459 kts | 230° |
| 2026-04-30 14:15 | -7.31539 | 110.59026 | 32702 ft | 471 kts | 230° |
| 2026-04-30 14:15 | -7.33507 | 110.56328 | 31441 ft | 482 kts | 230° |
| 2026-04-30 14:15 | -7.35507 | 110.53569 | 30132 ft | 490 kts | 230° |
| 2026-04-30 14:15 | -7.37524 | 110.50788 | 29034 ft | 493 kts | 230° |
| 2026-04-30 14:16 | -7.39486 | 110.48074 | 28366 ft | 472 kts | 230° |
| 2026-04-30 14:16 | -7.41371 | 110.45468 | 27625 ft | 451 kts | 231° |
| 2026-04-30 14:16 | -7.43180 | 110.42970 | 26929 ft | 431 kts | 232° |
| 2026-04-30 14:16 | -7.44914 | 110.40589 | 26267 ft | 413 kts | 231° |
| 2026-04-30 14:17 | -7.46594 | 110.38292 | 25619 ft | 397 kts | 231° |
| 2026-04-30 14:17 | -7.48195 | 110.36103 | 25023 ft | 382 kts | 231° |
| 2026-04-30 14:17 | -7.49741 | 110.33987 | 24442 ft | 368 kts | 231° |
| 2026-04-30 14:17 | -7.51225 | 110.31953 | 23884 ft | 355 kts | 231° |
| 2026-04-30 14:18 | -7.52670 | 110.29971 | 23358 ft | 343 kts | 231° |
| 2026-04-30 14:18 | -7.54051 | 110.28070 | 22870 ft | 332 kts | 231° |
| 2026-04-30 14:18 | -7.56693 | 110.24440 | 21964 ft | 310 kts | 231° |
| 2026-04-30 14:19 | -7.59316 | 110.20855 | 21114 ft | 346 kts | 231° |
| 2026-04-30 14:19 | -7.60822 | 110.18801 | 20623 ft | 381 kts | 232° |
| 2026-04-30 14:19 | -7.62430 | 110.16598 | 20117 ft | 393 kts | 232° |
| 2026-04-30 14:20 | -7.64049 | 110.14370 | 19624 ft | 395 kts | 233° |
| 2026-04-30 14:20 | -7.65665 | 110.12142 | 19123 ft | 394 kts | 233° |
| 2026-04-30 14:20 | -7.68860 | 110.07735 | 18109 ft | 386 kts | 233° |
| 2026-04-30 14:21 | -7.70447 | 110.05555 | 17605 ft | 383 kts | 233° |
| 2026-04-30 14:21 | -7.72009 | 110.03413 | 17086 ft | 380 kts | 233° |
| 2026-04-30 14:21 | -7.75493 | 109.99248 | 15264 ft | 396 kts | 220° |
| 2026-04-30 14:22 | -7.77700 | 109.97735 | 14806 ft | 390 kts | 208° |
| 2026-04-30 14:22 | -7.82590 | 109.96014 | 14060 ft | 360 kts | 193° |
| 2026-04-30 14:22 | -7.84979 | 109.95367 | 13987 ft | 346 kts | 193° |
| 2026-04-30 14:23 | -7.89439 | 109.94166 | 13805 ft | 323 kts | 193° |
| 2026-04-30 14:23 | -7.93664 | 109.93035 | 13555 ft | 304 kts | 193° |
| 2026-04-30 14:24 | -7.97733 | 109.91950 | 12246 ft | 304 kts | 193° |
| 2026-04-30 14:24 | -7.99697 | 109.91425 | 12235 ft | 280 kts | 193° |
| 2026-04-30 14:25 | -8.03234 | 109.90478 | 11856 ft | 253 kts | 193° |
| 2026-04-30 14:25 | -8.06603 | 109.89591 | 11036 ft | 248 kts | 192° |
| 2026-04-30 14:26 | -8.09869 | 109.89774 | 10152 ft | 237 kts | 148° |
| 2026-04-30 14:26 | -8.11104 | 109.90840 | 9677 ft | 232 kts | 123° |
| 2026-04-30 14:26 | -8.11770 | 109.93896 | 8674 ft | 229 kts | 77° |
| 2026-04-30 14:27 | -8.11171 | 109.95343 | 8320 ft | 224 kts | 63° |
| 2026-04-30 14:27 | -8.10433 | 109.96765 | 8203 ft | 231 kts | 64° |
| 2026-04-30 14:27 | -8.09696 | 109.98215 | 8084 ft | 232 kts | 64° |
| 2026-04-30 14:28 | -8.08226 | 110.01121 | 7661 ft | 232 kts | 64° |
| 2026-04-30 14:28 | -8.07493 | 110.02572 | 7344 ft | 232 kts | 64° |
| 2026-04-30 14:28 | -8.06761 | 110.04021 | 7021 ft | 232 kts | 64° |
| 2026-04-30 14:28 | -8.06024 | 110.05476 | 6682 ft | 234 kts | 64° |
| 2026-04-30 14:29 | -8.04523 | 110.08433 | 5977 ft | 236 kts | 63° |
| 2026-04-30 14:29 | -8.03284 | 110.10870 | 5399 ft | 237 kts | 63° |
| 2026-04-30 14:30 | -7.99720 | 110.15049 | 4051 ft | 247 kts | 35° |
| 2026-04-30 14:31 | -7.96674 | 110.16460 | 3295 ft | 244 kts | 356° |
| 2026-04-30 14:31 | -7.94044 | 110.14499 | 2184 ft | 248 kts | 306° |
| 2026-04-30 14:31 | -7.93155 | 110.13031 | 1697 ft | 246 kts | 291° |
| 2026-04-30 14:32 | -7.92022 | 110.09827 | 1023 ft | 235 kts | 290° |
| 2026-04-30 14:32 | -7.91662 | 110.08832 | 1122 ft | 222 kts | 290° |
| 2026-04-30 14:32 | -7.90949 | 110.06876 | 1443 ft | 220 kts | 290° |
| 2026-04-30 14:33 | -7.90720 | 110.05368 | 1689 ft | 221 kts | 259° |
| 2026-04-30 14:33 | -7.92635 | 110.03219 | 1992 ft | 215 kts | 191° |
| 2026-04-30 14:33 | -7.94095 | 110.02983 | 2001 ft | 214 kts | 184° |
| 2026-04-30 14:34 | -7.95566 | 110.03073 | 2006 ft | 212 kts | 160° |
| 2026-04-30 14:34 | -7.96815 | 110.03837 | 2009 ft | 210 kts | 131° |
| 2026-04-30 14:34 | -7.97363 | 110.04632 | 2010 ft | 210 kts | 117° |
| 2026-04-30 14:34 | -7.98054 | 110.05949 | 2008 ft | 211 kts | 117° |
| 2026-04-30 14:35 | -7.99410 | 110.08553 | 1808 ft | 208 kts | 117° |
| 2026-04-30 14:35 | -8.00067 | 110.09811 | 1729 ft | 205 kts | 117° |
| 2026-04-30 14:35 | -8.00779 | 110.11173 | 1685 ft | 217 kts | 116° |
| 2026-04-30 14:36 | -8.01174 | 110.12553 | 1630 ft | 197 kts | 90° |
| 2026-04-30 14:36 | -8.00877 | 110.13859 | 1586 ft | 191 kts | 62° |
| 2026-04-30 14:36 | -8.00008 | 110.14856 | 1541 ft | 192 kts | 36° |
| 2026-04-30 14:36 | -7.98910 | 110.15621 | 1492 ft | 193 kts | 37° |
| 2026-04-30 14:37 | -7.97809 | 110.16386 | 1414 ft | 192 kts | 34° |
| 2026-04-30 14:37 | -7.96545 | 110.16743 | 1328 ft | 193 kts | 356° |
| 2026-04-30 14:37 | -7.95330 | 110.16195 | 1312 ft | 197 kts | 314° |
| 2026-04-30 14:37 | -7.94590 | 110.15036 | 1318 ft | 198 kts | 301° |
| 2026-04-30 14:38 | -7.93867 | 110.13931 | 1317 ft | 177 kts | 306° |
| 2026-04-30 14:38 | -7.93263 | 110.12928 | 1290 ft | 162 kts | 293° |
| 2026-04-30 14:38 | -7.92842 | 110.11884 | 1038 ft | 158 kts | 291° |
| 2026-04-30 14:38 | -7.92452 | 110.10865 | 828 ft | 154 kts | 291° |
| 2026-04-30 14:39 | -7.92055 | 110.09873 | 627 ft | 152 kts | 292° |
| 2026-04-30 14:39 | -7.91683 | 110.08887 | 418 ft | 150 kts | 290° |
| 2026-04-30 14:39 | -7.91338 | 110.07909 | 238 ft | 147 kts | 290° |
| 2026-04-30 14:40 | -7.90677 | 110.06119 | 41 ft | 88 kts | 290° |
| 2026-04-30 14:40 | -7.90513 | 110.05670 | 42 ft | 53 kts | 290° |
| 2026-04-30 14:40 | -7.90400 | 110.05367 | 36 ft | 32 kts | 295° |
| 2026-04-30 14:40 | -7.90295 | 110.05239 | 39 ft | 18 kts | 318° |
| 2026-04-30 14:41 | -7.90221 | 110.05179 | 37 ft | 11 kts | 328° |
| 2026-04-30 14:41 | -7.90164 | 110.05202 | 37 ft | 8 kts | 64° |
| 2026-04-30 14:41 | -7.90174 | 110.05246 | 38 ft | 6 kts | 109° |
| 2026-04-30 14:41 | -7.90191 | 110.05292 | 40 ft | 8 kts | 111° |
| 2026-04-30 14:42 | -7.90216 | 110.05354 | 39 ft | 12 kts | 111° |
| 2026-04-30 14:42 | -7.90246 | 110.05435 | 39 ft | 13 kts | 110° |
| 2026-04-30 14:42 | -7.90287 | 110.05543 | 40 ft | 20 kts | 111° |
| 2026-04-30 14:42 | -7.90336 | 110.05678 | 43 ft | 17 kts | 109° |
| 2026-04-30 14:43 | -7.90313 | 110.05757 | 43 ft | 13 kts | 28° |
| 2026-04-30 14:43 | -7.90227 | 110.05790 | 38 ft | 11 kts | 27° |
| 2026-04-30 14:43 | -7.90165 | 110.05820 | 38 ft | 9 kts | 20° |
| 2026-04-30 14:43 | -7.90137 | 110.05831 | 37 ft | 4 kts | 21° |
| 2026-04-30 14:44 | -7.90125 | 110.05835 | 38 ft | 1 kts | 21° |
| 2026-04-30 14:44 | -7.90118 | 110.05838 | 38 ft | 1 kts | 20° |